Time;durP1;ratioP1;P1;durP2;ratioP2;P2;SDS_P1;SDS_P2;PMS_P1;PMS_P2;Temp;Humidity;BMP_temperature;BMP_pressure;BME280_temperature;BME280_humidity;BME280_pressure;Samples;Min_cycle;Max_cycle;Signal;HPM_P1;HPM_P2
2021/01/24 00:00:19;;;;;;;11.95;7.07;;;;;;;18.80;49.43;99489.28;5020145;28;20107;-71
2021/01/24 00:02:44;;;;;;;9.90;6.80;;;;;;;18.79;49.25;99484.97;4993772;28;20059;-72
2021/01/24 00:05:09;;;;;;;12.80;8.27;;;;;;;18.79;49.41;99487.56;5015878;28;20026;-73
2021/01/24 00:07:35;;;;;;;10.85;7.13;;;;;;;18.77;49.39;99489.38;4985454;28;20480;-72
2021/01/24 00:10:01;;;;;;;12.27;6.70;;;;;;;18.75;49.24;99485.94;4993809;28;20026;-72
2021/01/24 00:12:26;;;;;;;9.07;6.53;;;;;;;18.72;49.23;99477.28;4991822;28;20136;-72
2021/01/24 00:14:53;;;;;;;11.98;6.88;;;;;;;18.77;49.32;99485.91;5004430;28;20033;-72
2021/01/24 00:17:18;;;;;;;9.82;6.28;;;;;;;18.75;49.02;99491.16;5003346;28;20034;-72
2021/01/24 00:19:45;;;;;;;9.90;6.50;;;;;;;18.75;49.04;99487.69;4996604;28;20113;-72
2021/01/24 00:22:11;;;;;;;14.93;6.10;;;;;;;18.70;48.98;99479.09;4990925;28;20045;-72
2021/01/24 00:24:36;;;;;;;8.77;6.05;;;;;;;18.75;49.29;99493.78;4991219;28;20038;-72
2021/01/24 00:27:01;;;;;;;9.45;6.32;;;;;;;18.72;49.06;99487.78;4999722;28;20026;-72
2021/01/24 00:29:27;;;;;;;9.63;5.53;;;;;;;18.74;49.01;99497.31;5011001;28;20361;-72
2021/01/24 00:31:52;;;;;;;9.63;6.15;;;;;;;18.69;49.11;99488.75;4987904;28;20794;-72
2021/01/24 00:34:17;;;;;;;12.98;6.38;;;;;;;18.70;49.17;99479.94;5022147;28;20037;-72
2021/01/24 00:36:43;;;;;;;8.25;5.35;;;;;;;18.68;49.01;99484.41;4994550;28;20113;-72
2021/01/24 00:39:09;;;;;;;9.93;5.90;;;;;;;18.66;48.92;99486.19;5013101;28;20068;-77
2021/01/24 00:41:36;;;;;;;9.55;6.10;;;;;;;18.70;48.90;99487.81;4993438;28;20041;-77
2021/01/24 00:44:02;;;;;;;8.90;5.30;;;;;;;18.67;49.17;99487.91;4991084;28;20147;-77
2021/01/24 00:46:27;;;;;;;9.05;5.60;;;;;;;18.69;48.87;99493.97;4973914;28;20042;-77
2021/01/24 00:48:52;;;;;;;7.80;5.43;;;;;;;18.69;48.74;99495.72;4965789;28;20042;-78
2021/01/24 00:51:19;;;;;;;10.57;5.53;;;;;;;18.66;48.96;99491.44;5000983;28;20026;-77
2021/01/24 00:53:44;;;;;;;7.25;5.25;;;;;;;18.62;48.81;99484.53;4994699;28;20058;-77
2021/01/24 00:56:11;;;;;;;9.35;5.82;;;;;;;18.66;49.04;99493.19;5005845;28;20443;-78
2021/01/24 00:58:36;;;;;;;9.55;6.13;;;;;;;18.63;48.84;99488.03;4958038;28;20088;-78
2021/01/24 01:01:02;;;;;;;8.27;4.75;;;;;;;18.62;48.94;99491.53;4966495;28;20054;-77
2021/01/24 01:03:27;;;;;;;8.05;5.53;;;;;;;18.61;48.71;99482.81;4992043;28;20029;-77
2021/01/24 01:05:53;;;;;;;8.30;5.15;;;;;;;18.62;49.01;99492.41;4990519;28;20121;-77
2021/01/24 01:08:18;;;;;;;5.90;4.10;;;;;;;18.63;48.94;99501.13;5005061;28;20065;-78
2021/01/24 01:10:43;;;;;;;10.18;5.22;;;;;;;18.64;48.76;99501.09;4994656;28;20087;-77
2021/01/24 01:13:09;;;;;;;8.60;5.28;;;;;;;18.61;48.92;99500.28;4988488;28;20030;-77
2021/01/24 01:15:35;;;;;;;7.03;4.45;;;;;;;18.61;48.80;99505.53;4993882;28;20042;-77
2021/01/24 01:18:00;;;;;;;8.48;4.88;;;;;;;18.60;48.75;99499.44;4993368;28;20442;-77
2021/01/24 01:20:26;;;;;;;9.23;4.97;;;;;;;18.61;48.65;99505.53;4956250;28;20132;-77
2021/01/24 01:22:52;;;;;;;7.53;4.30;;;;;;;18.60;48.66;99507.28;4979436;28;20042;-77
2021/01/24 01:25:17;;;;;;;7.45;4.15;;;;;;;18.59;49.06;99508.19;4990796;28;20034;-78
2021/01/24 01:27:43;;;;;;;7.15;4.55;;;;;;;18.59;48.67;99516.03;4978810;28;20039;-77
2021/01/24 01:30:09;;;;;;;5.25;4.15;;;;;;;18.57;48.91;99523.03;4994735;28;20026;-77
2021/01/24 01:32:35;;;;;;;5.82;3.92;;;;;;;18.57;48.59;99517.81;5010899;28;20037;-78
2021/01/24 01:35:02;;;;;;;5.25;3.83;;;;;;;18.55;48.78;99517.88;5020175;28;20121;-77
2021/01/24 01:37:28;;;;;;;6.63;4.40;;;;;;;18.54;48.67;99517.91;5019604;28;20030;-77
2021/01/24 01:39:53;;;;;;;6.95;3.78;;;;;;;18.52;48.75;99523.19;4981857;28;20030;-78
2021/01/24 01:42:19;;;;;;;6.93;4.22;;;;;;;18.56;48.72;99531.81;5030133;28;20049;-77
2021/01/24 01:44:44;;;;;;;6.43;4.82;;;;;;;18.54;48.73;99539.72;5022902;28;20399;-77
2021/01/24 01:47:12;;;;;;;7.55;3.78;;;;;;;18.51;48.74;99536.31;5022723;28;20032;-77
2021/01/24 01:49:38;;;;;;;6.10;3.53;;;;;;;18.52;48.77;99538.03;5015472;28;20026;-77
2021/01/24 01:52:04;;;;;;;6.40;3.90;;;;;;;18.52;48.95;99538.03;5019709;28;20269;-77
2021/01/24 01:54:29;;;;;;;11.32;5.05;;;;;;;18.52;48.84;99548.50;5021976;28;20395;-77
2021/01/24 01:56:55;;;;;;;6.38;3.78;;;;;;;18.47;48.85;99538.13;5022357;28;20044;-77
2021/01/24 01:59:22;;;;;;;6.07;3.72;;;;;;;18.48;48.74;99542.47;5020747;28;20033;-77
2021/01/24 02:02:13;;;;;;;7.85;4.65;;;;;;;18.48;48.65;99542.47;5023426;28;20105;-77
2021/01/24 02:04:56;;;;;;;4.57;3.20;;;;;;;18.49;48.50;99544.19;5019149;28;20068;-77
2021/01/24 02:07:39;;;;;;;6.05;3.67;;;;;;;18.49;48.69;99548.56;5019986;28;20048;-77
2021/01/24 02:10:15;;;;;;;4.78;2.75;;;;;;;18.49;48.70;99548.56;5032038;28;20032;-77
2021/01/24 02:12:56;;;;;;;5.15;3.25;;;;;;;18.50;48.79;99552.91;5019222;28;20029;-77
2021/01/24 02:15:27;;;;;;;5.78;3.45;;;;;;;18.48;48.79;99557.31;5030349;28;20026;-77
2021/01/24 02:17:59;;;;;;;5.53;3.88;;;;;;;18.44;48.87;99551.28;5008331;28;20072;-78
2021/01/24 02:20:44;;;;;;;5.97;3.15;;;;;;;18.46;48.73;99559.09;5018980;28;20074;-77
2021/01/24 02:23:11;;;;;;;5.63;3.47;;;;;;;18.44;48.63;99555.66;5016153;28;20367;-77
2021/01/24 02:25:48;;;;;;;5.38;3.88;;;;;;;18.45;48.69;99560.00;5013890;28;20030;-77
2021/01/24 02:28:35;;;;;;;4.40;3.13;;;;;;;18.44;48.68;99564.38;5019175;28;20048;-77
2021/01/24 02:31:02;;;;;;;7.38;4.25;;;;;;;18.45;48.41;99567.84;5019316;28;20029;-77
2021/01/24 02:33:30;;;;;;;4.82;2.90;;;;;;;18.39;48.42;99563.66;5013232;28;20041;-77
2021/01/24 02:35:58;;;;;;;4.57;3.05;;;;;;;18.42;48.31;99570.56;5013036;28;20124;-77
2021/01/24 02:38:26;;;;;;;5.60;3.50;;;;;;;18.42;48.50;99576.66;5020426;28;20061;-78
2021/01/24 02:40:53;;;;;;;4.93;2.78;;;;;;;18.40;48.55;99568.00;5027421;28;20041;-77
2021/01/24 02:43:20;;;;;;;4.45;3.38;;;;;;;18.39;48.49;99571.50;5026788;28;20388;-77
2021/01/24 02:45:47;;;;;;;5.07;3.58;;;;;;;18.42;48.53;99581.91;5025089;28;20026;-77
2021/01/24 02:48:15;;;;;;;4.43;2.92;;;;;;;18.40;48.68;99578.47;5034272;28;20033;-77
2021/01/24 02:50:41;;;;;;;5.57;3.58;;;;;;;18.38;48.51;99579.38;5016642;28;20037;-77
2021/01/24 02:53:08;;;;;;;3.72;2.55;;;;;;;18.37;48.30;99583.75;5014106;28;20025;-77
2021/01/24 02:55:34;;;;;;;3.88;2.67;;;;;;;18.36;48.55;99595.13;5017857;28;20032;-77
2021/01/24 02:58:00;;;;;;;5.35;2.85;;;;;;;18.39;48.51;99602.06;5017874;28;20030;-77
2021/01/24 03:00:26;;;;;;;3.53;2.30;;;;;;;18.38;48.36;99609.03;5003256;28;20068;-77
2021/01/24 03:02:52;;;;;;;4.63;2.88;;;;;;;18.37;48.60;99612.56;5021704;28;20144;-77
2021/01/24 03:05:17;;;;;;;4.07;2.80;;;;;;;18.37;48.33;99607.31;5014251;28;20480;-77
2021/01/24 03:07:43;;;;;;;5.82;3.65;;;;;;;18.37;48.27;99609.94;5023067;28;20475;-77
2021/01/24 03:10:10;;;;;;;4.20;2.55;;;;;;;18.36;48.24;99612.59;5015389;28;20412;-77
2021/01/24 03:12:51;;;;;;;4.18;2.75;;;;;;;18.36;48.35;99615.19;5019097;28;20030;-77
2021/01/24 03:15:20;;;;;;;3.38;2.65;;;;;;;18.34;48.40;99617.84;5013900;28;20385;-77
2021/01/24 03:17:47;;;;;;;2.97;2.10;;;;;;;18.34;48.48;99617.00;5014148;28;20087;-76
2021/01/24 03:20:15;;;;;;;3.80;2.75;;;;;;;18.33;48.44;99620.50;5011910;28;20437;-77
2021/01/24 03:22:43;;;;;;;4.03;2.67;;;;;;;18.32;48.30;99624.88;5015524;28;20036;-78
2021/01/24 03:25:09;;;;;;;4.60;3.00;;;;;;;18.34;48.30;99627.47;5022893;28;20025;-77
2021/01/24 03:27:35;;;;;;;3.70;2.30;;;;;;;18.31;48.37;99638.84;4997422;28;20121;-77
2021/01/24 03:30:01;;;;;;;3.80;2.42;;;;;;;18.32;48.20;99639.72;5019277;28;20147;-77
2021/01/24 03:32:28;;;;;;;3.60;2.25;;;;;;;18.33;48.23;99652.78;5019723;28;20104;-77
2021/01/24 03:34:53;;;;;;;4.13;2.63;;;;;;;18.33;48.38;99665.00;5007259;28;20507;-77
2021/01/24 03:37:19;;;;;;;3.70;2.40;;;;;;;18.27;48.23;99652.94;5005529;28;20030;-77
2021/01/24 03:39:44;;;;;;;2.92;2.15;;;;;;;18.28;48.24;99654.66;5021478;28;20029;-77
2021/01/24 03:42:10;;;;;;;4.32;2.30;;;;;;;18.31;48.02;99665.03;5002990;28;20030;-77
2021/01/24 03:44:36;;;;;;;3.22;1.80;;;;;;;18.30;48.50;99672.94;5002688;28;20735;-78
2021/01/24 03:47:03;;;;;;;3.28;1.65;;;;;;;18.24;48.20;99659.97;5020818;28;20029;-77
2021/01/24 03:49:29;;;;;;;3.28;1.88;;;;;;;18.27;48.37;99667.75;5013151;28;20709;-77
2021/01/24 03:51:54;;;;;;;2.97;1.63;;;;;;;18.29;48.29;99679.06;5005256;28;20480;-77
2021/01/24 03:54:20;;;;;;;3.50;2.10;;;;;;;18.25;48.38;99690.50;5014431;28;20025;-77
2021/01/24 03:56:45;;;;;;;2.47;1.85;;;;;;;18.25;48.29;99695.72;4995448;28;20480;-77
2021/01/24 03:59:10;;;;;;;4.47;2.20;;;;;;;18.27;48.38;99704.41;4993236;28;20113;-77
2021/01/24 04:01:37;;;;;;;3.03;2.13;;;;;;;18.25;48.51;99714.03;5003218;28;20057;-77
2021/01/24 04:04:03;;;;;;;3.72;1.98;;;;;;;18.24;48.38;99707.09;5007861;28;20042;-77
2021/01/24 04:06:28;;;;;;;3.50;2.10;;;;;;;18.21;48.11;99710.63;5021456;28;20087;-77
2021/01/24 04:08:55;;;;;;;3.50;1.83;;;;;;;18.22;48.07;99714.97;5020097;28;20026;-77
2021/01/24 04:11:20;;;;;;;4.30;2.22;;;;;;;18.18;48.37;99703.69;5001592;28;20120;-77
2021/01/24 04:13:46;;;;;;;3.60;2.10;;;;;;;18.21;48.03;99713.22;5029280;28;20378;-77
2021/01/24 04:16:12;;;;;;;2.92;1.70;;;;;;;18.18;48.08;99711.53;5022597;28;20021;-77
2021/01/24 04:18:38;;;;;;;2.55;1.50;;;;;;;18.19;48.10;99701.94;5022104;28;20132;-77
2021/01/24 04:21:04;;;;;;;5.80;2.42;;;;;;;18.18;48.18;99685.38;5018932;28;20029;-77
2021/01/24 04:23:29;;;;;;;3.35;2.10;;;;;;;18.20;48.04;99687.97;5021453;28;20542;-77
2021/01/24 04:25:55;;;;;;;2.80;1.67;;;;;;;18.16;47.77;99687.19;5008642;28;20037;-77
2021/01/24 04:28:20;;;;;;;2.72;1.50;;;;;;;18.17;48.06;99696.75;5019858;28;20136;-77
2021/01/24 04:30:46;;;;;;;3.00;1.58;;;;;;;18.19;48.24;99702.78;5015537;28;20030;-77
2021/01/24 04:33:11;;;;;;;2.83;1.77;;;;;;;18.18;48.21;99703.69;5004747;28;20042;-77
2021/01/24 04:35:36;;;;;;;2.85;2.00;;;;;;;18.16;48.42;99700.28;5025524;28;20034;-77
2021/01/24 04:38:02;;;;;;;2.90;1.88;;;;;;;18.15;47.97;99710.75;4994736;28;20030;-77
2021/01/24 04:40:28;;;;;;;3.28;2.00;;;;;;;18.13;48.13;99705.56;5027947;28;20518;-77
2021/01/24 04:42:55;;;;;;;2.60;1.65;;;;;;;18.15;47.97;99709.00;4992751;28;20021;-77
2021/01/24 04:45:23;;;;;;;4.70;1.92;;;;;;;18.14;48.33;99707.28;5023568;28;20096;-77
2021/01/24 04:47:51;;;;;;;2.72;1.85;;;;;;;18.15;48.03;99711.63;5024847;28;20105;-77
2021/01/24 04:50:18;;;;;;;2.65;1.55;;;;;;;18.14;48.33;99707.28;5026388;28;20030;-77
2021/01/24 04:52:43;;;;;;;3.17;1.55;;;;;;;18.14;48.18;99712.53;5029689;28;21653;-77
2021/01/24 04:55:10;;;;;;;3.13;1.77;;;;;;;18.09;48.10;99708.28;5010605;28;20029;-77
2021/01/24 04:57:36;;;;;;;3.55;1.88;;;;;;;18.12;48.34;99714.31;5025063;28;20026;-77
2021/01/24 05:00:05;;;;;;;2.88;1.63;;;;;;;18.15;48.21;99719.47;5012793;28;20029;-77
2021/01/24 05:02:30;;;;;;;2.45;1.55;;;;;;;18.27;47.64;99727.97;5026740;28;20041;-77
2021/01/24 05:04:55;;;;;;;2.42;1.40;;;;;;;18.35;47.32;99726.03;5009197;28;20121;-77
2021/01/24 05:07:21;;;;;;;2.45;1.65;;;;;;;18.33;47.58;99719.97;5016912;28;20362;-77
2021/01/24 05:09:47;;;;;;;1.80;0.95;;;;;;;18.37;47.71;99721.63;4996870;28;20079;-77
2021/01/24 05:12:12;;;;;;;2.70;1.70;;;;;;;18.41;47.35;99718.91;5017865;28;20384;-77
2021/01/24 05:14:39;;;;;;;2.53;1.27;;;;;;;18.49;47.13;99727.44;5019447;28;20034;-77
2021/01/24 05:17:05;;;;;;;2.35;1.25;;;;;;;18.46;47.28;99732.75;5023558;28;20026;-77
2021/01/24 05:19:37;;;;;;;1.73;1.10;;;;;;;18.46;47.61;99727.50;5009160;28;20022;-77
2021/01/24 05:22:04;;;;;;;1.92;1.15;;;;;;;18.54;47.25;99728.22;5025645;28;20487;-77
2021/01/24 05:24:34;;;;;;;1.48;1.13;;;;;;;18.56;47.22;99726.38;5018729;28;20029;-77
2021/01/24 05:27:13;;;;;;;2.10;1.30;;;;;;;18.50;47.39;99717.84;5022953;28;20026;-77
2021/01/24 05:29:43;;;;;;;3.10;1.48;;;;;;;18.53;47.49;99717.78;5027979;28;20061;-77
2021/01/24 05:32:10;;;;;;;2.75;1.50;;;;;;;18.62;47.29;99730.66;5025527;28;20091;-77
2021/01/24 05:34:35;;;;;;;2.67;1.25;;;;;;;18.63;47.32;99734.16;5005655;28;20025;-77
2021/01/24 05:37:01;;;;;;;2.15;1.30;;;;;;;18.59;47.40;99728.13;5022018;28;20087;-77
2021/01/24 05:39:31;;;;;;;2.00;1.38;;;;;;;18.67;47.22;99730.56;5026554;28;20022;-77
2021/01/24 05:41:58;;;;;;;2.53;1.02;;;;;;;18.70;47.03;99736.59;5019813;28;20084;-77
2021/01/24 05:44:25;;;;;;;1.63;1.20;;;;;;;18.63;47.11;99727.16;5025215;28;20408;-77
2021/01/24 05:47:01;;;;;;;2.45;1.27;;;;;;;18.65;47.34;99729.75;5007451;28;20029;-77
2021/01/24 05:49:31;;;;;;;1.60;0.95;;;;;;;18.71;46.96;99727.84;5027080;28;20028;-77
2021/01/24 05:52:19;;;;;;;2.03;1.10;;;;;;;18.64;47.10;99728.03;5016326;28;20503;-77
2021/01/24 05:54:46;;;;;;;1.88;1.30;;;;;;;18.66;46.97;99739.31;5009039;28;20049;-77
2021/01/24 05:57:13;;;;;;;1.65;0.93;;;;;;;18.70;47.05;99738.34;5014265;28;20049;-77
2021/01/24 05:59:58;;;;;;;1.25;0.98;;;;;;;18.71;46.87;99740.06;5028374;28;20073;-77
2021/01/24 06:02:26;;;;;;;3.15;1.40;;;;;;;18.70;47.06;99748.81;5022168;28;20042;-77
2021/01/24 06:04:51;;;;;;;2.05;1.27;;;;;;;18.70;47.17;99743.56;5021433;28;20049;-78
2021/01/24 06:07:18;;;;;;;1.98;1.38;;;;;;;18.75;47.03;99754.81;5024062;28;20429;-78
2021/01/24 06:09:44;;;;;;;1.65;0.98;;;;;;;18.71;47.23;99747.91;5025402;28;20060;-77
2021/01/24 06:12:11;;;;;;;1.70;1.10;;;;;;;18.68;46.99;99748.00;5013329;28;20029;-77
2021/01/24 06:14:39;;;;;;;2.05;0.85;;;;;;;18.74;47.05;99747.84;5028177;28;20441;-77
2021/01/24 06:17:28;;;;;;;1.58;0.70;;;;;;;18.79;47.05;99761.72;5018792;28;20057;-78
2021/01/24 06:19:58;;;;;;;1.08;0.80;;;;;;;18.72;47.17;99760.13;5025232;28;20140;-77
2021/01/24 06:22:43;;;;;;;1.33;0.80;;;;;;;18.74;47.16;99772.28;5026810;28;20379;-78
2021/01/24 06:25:14;;;;;;;1.02;0.70;;;;;;;18.77;47.00;99763.50;5022212;28;20021;-78
2021/01/24 06:27:44;;;;;;;1.83;1.02;;;;;;;18.75;47.09;99771.41;5022478;28;20900;-77
2021/01/24 06:30:12;;;;;;;2.63;1.02;;;;;;;18.74;47.14;99772.28;5019062;28;20026;-78
2021/01/24 06:32:37;;;;;;;1.40;0.73;;;;;;;18.78;46.68;99770.47;5020096;28;20106;-78
2021/01/24 06:35:18;;;;;;;1.15;0.80;;;;;;;18.80;46.95;99782.63;5023411;28;20122;-78
2021/01/24 06:38:02;;;;;;;1.92;0.63;;;;;;;18.75;47.13;99779.25;5024632;28;20439;-78
2021/01/24 06:40:32;;;;;;;2.03;0.80;;;;;;;18.83;46.86;99790.41;5015001;28;20377;-77
2021/01/24 06:43:02;;;;;;;1.35;0.70;;;;;;;18.83;46.98;99789.53;5026001;28;20038;-78
2021/01/24 06:45:28;;;;;;;2.63;1.15;;;;;;;18.80;46.85;99785.25;5015563;28;20499;-78
2021/01/24 06:47:55;;;;;;;1.48;0.82;;;;;;;18.83;47.11;99792.16;5029713;28;20029;-78
2021/01/24 06:50:39;;;;;;;0.95;0.65;;;;;;;18.94;46.83;99784.06;5021239;28;20097;-78
2021/01/24 06:53:06;;;;;;;0.90;0.70;;;;;;;18.91;46.58;99798.09;5029537;28;20033;-78
2021/01/24 06:55:32;;;;;;;0.65;0.50;;;;;;;18.89;46.79;99798.13;5020256;28;20203;-78
2021/01/24 06:57:58;;;;;;;1.38;0.80;;;;;;;18.96;46.70;99790.97;5026783;28;20480;-78
2021/01/24 07:00:24;;;;;;;1.65;1.10;;;;;;;18.98;46.50;99809.28;5028526;28;20037;-78
2021/01/24 07:02:49;;;;;;;1.10;0.75;;;;;;;18.89;46.69;99806.00;5007081;28;20044;-77
2021/01/24 07:05:19;;;;;;;0.98;0.73;;;;;;;18.98;46.63;99814.53;4994770;28;20061;-77
2021/01/24 07:07:49;;;;;;;0.98;0.60;;;;;;;19.04;46.71;99811.78;5009989;28;20034;-78
2021/01/24 07:10:39;;;;;;;3.03;0.82;;;;;;;19.01;46.60;99815.31;5013468;28;20030;-78
2021/01/24 07:13:30;;;;;;;0.82;0.60;;;;;;;19.06;46.57;99828.34;5014355;28;20029;-79
2021/01/24 07:15:57;;;;;;;1.25;0.50;;;;;;;19.10;46.44;99827.34;5013323;28;20064;-78
2021/01/24 07:18:23;;;;;;;1.17;0.85;;;;;;;19.07;46.29;99827.44;5013822;28;20080;-78
2021/01/24 07:20:51;;;;;;;1.15;0.70;;;;;;;19.05;46.45;99831.84;5013791;28;20034;-78
2021/01/24 07:23:18;;;;;;;1.38;0.80;;;;;;;19.01;46.31;99835.41;5017936;28;20037;-78
2021/01/24 07:25:44;;;;;;;1.27;0.70;;;;;;;18.92;45.81;99836.50;5012181;28;20396;-71
2021/01/24 07:28:11;;;;;;;1.63;0.68;;;;;;;18.81;45.59;99841.13;5013360;28;20435;-79
2021/01/24 07:30:40;;;;;;;6.90;2.75;;;;;;;18.78;45.64;99844.66;5022669;28;20029;-79
2021/01/24 07:33:06;;;;;;;4.40;1.40;;;;;;;18.85;45.65;99854.09;5020994;28;20026;-71
2021/01/24 07:35:38;;;;;;;3.60;1.42;;;;;;;18.99;45.95;99863.41;5016300;28;20026;-76
2021/01/24 07:38:09;;;;;;;7.60;2.50;;;;;;;18.99;45.90;99866.03;5022475;28;20030;-71
2021/01/24 07:40:34;;;;;;;5.32;1.33;;;;;;;18.96;46.19;99866.94;5019640;28;20489;-76
2021/01/24 07:43:00;;;;;;;4.68;1.83;;;;;;;19.10;46.23;99864.88;5020773;28;20042;-78
2021/01/24 07:45:27;;;;;;;2.83;1.88;;;;;;;19.10;46.12;99867.50;5012795;28;20049;-78
2021/01/24 07:47:53;;;;;;;3.88;1.83;;;;;;;19.01;46.07;99865.09;4993411;28;20176;-78
2021/01/24 07:50:18;;;;;;;3.53;1.98;;;;;;;19.10;46.22;99870.13;4987027;28;20155;-78
2021/01/24 07:52:44;;;;;;;7.65;2.30;;;;;;;19.15;46.07;99870.91;5024908;28;20379;-78
2021/01/24 07:55:11;;;;;;;6.88;2.15;;;;;;;19.11;46.09;99865.75;5022028;28;20026;-78
2021/01/24 07:57:39;;;;;;;3.47;2.03;;;;;;;19.13;46.46;99870.06;5023474;28;20026;-79
2021/01/24 08:00:06;;;;;;;5.47;2.33;;;;;;;19.17;46.07;99871.72;5011197;28;20022;-72
2021/01/24 08:02:32;;;;;;;5.78;2.10;;;;;;;19.14;46.14;99868.31;5015825;28;20042;-72
2021/01/24 08:05:00;;;;;;;3.75;2.17;;;;;;;19.13;46.27;99877.06;5018906;28;20045;-72
2021/01/24 08:07:29;;;;;;;4.15;1.80;;;;;;;19.17;46.32;99868.25;5018664;28;20030;-72
2021/01/24 08:09:55;;;;;;;8.23;3.03;;;;;;;19.21;46.18;99869.91;5005580;28;20072;-73
2021/01/24 08:12:21;;;;;;;8.55;2.60;;;;;;;19.22;46.20;99866.38;5007168;28;20029;-72
2021/01/24 08:14:47;;;;;;;9.77;3.58;;;;;;;19.27;46.29;99880.22;5002217;28;20030;-71
2021/01/24 08:17:16;;;;;;;4.38;2.17;;;;;;;19.29;46.39;99878.44;5016241;28;20030;-70
2021/01/24 08:19:43;;;;;;;3.45;1.63;;;;;;;19.30;46.55;99881.94;5023829;28;20029;-72
2021/01/24 08:22:09;;;;;;;5.70;2.53;;;;;;;19.29;46.78;99883.69;5027857;28;20033;-76
2021/01/24 08:24:35;;;;;;;6.35;2.22;;;;;;;19.40;46.84;99876.44;5033779;28;20026;-76
2021/01/24 08:27:01;;;;;;;9.13;3.78;;;;;;;19.42;46.87;99877.25;5020522;28;20151;-71
2021/01/24 08:29:34;;;;;;;10.27;3.65;;;;;;;19.32;47.16;99885.38;5020270;28;20129;-70
2021/01/24 08:32:02;;;;;;;7.85;3.38;;;;;;;19.42;47.13;99889.50;5016245;28;20121;-70
2021/01/24 08:34:28;;;;;;;7.55;3.30;;;;;;;19.43;47.09;99893.84;5016793;28;20042;-71
2021/01/24 08:36:54;;;;;;;12.13;5.13;;;;;;;19.39;47.51;99897.44;5020308;28;20101;-76
2021/01/24 08:39:23;;;;;;;10.25;4.65;;;;;;;19.43;47.94;99899.09;5021046;28;20459;-81
2021/01/24 08:41:49;;;;;;;12.25;4.88;;;;;;;19.43;47.62;99899.09;5020142;28;20030;-76
2021/01/24 08:44:15;;;;;;;8.85;4.70;;;;;;;19.38;48.02;99899.19;5020401;28;20038;-77
2021/01/24 08:46:44;;;;;;;9.07;4.35;;;;;;;19.38;47.96;99904.44;5028612;28;20029;-78
2021/01/24 08:49:12;;;;;;;6.13;3.72;;;;;;;19.47;47.83;99898.13;5026495;28;20025;-76
2021/01/24 08:51:38;;;;;;;6.53;3.30;;;;;;;19.42;47.73;99911.34;5022535;28;20013;-75
2021/01/24 08:54:22;;;;;;;5.60;3.13;;;;;;;19.38;48.01;99917.53;5020076;28;20124;-75
2021/01/24 08:56:48;;;;;;;;;;;;;;;19.50;47.87;99930.41;5024230;28;20468;-76
2021/01/24 08:59:20;;;;;;;11.30;3.00;;;;;;;19.57;47.67;99941.63;5021576;28;19923;-76
2021/01/24 09:01:53;;;;;;;4.15;2.47;;;;;;;19.46;47.79;99949.72;5020812;28;20054;-77
2021/01/24 09:04:27;;;;;;;15.18;5.20;;;;;;;19.51;48.21;99958.34;5018234;28;20045;-78
2021/01/24 09:07:05;;;;;;;9.00;4.85;;;;;;;19.50;48.46;99954.00;5027249;28;20080;-80
2021/01/24 09:09:35;;;;;;;12.02;4.13;;;;;;;19.48;47.91;99961.00;5027427;28;20151;-80
2021/01/24 09:12:02;;;;;;;9.35;4.45;;;;;;;19.47;48.24;99967.16;5033439;28;20030;-79
2021/01/24 09:14:28;;;;;;;7.57;3.45;;;;;;;19.44;48.04;99958.50;5027397;28;20026;-80
2021/01/24 09:17:02;;;;;;;6.03;2.90;;;;;;;19.38;47.75;99959.50;5015364;28;20079;-80
2021/01/24 09:19:29;;;;;;;7.45;3.00;;;;;;;19.37;48.19;99951.66;5036353;28;20357;-79
2021/01/24 09:21:54;;;;;;;6.13;2.90;;;;;;;19.42;47.77;99957.66;5016630;28;20055;-79
2021/01/24 09:24:20;;;;;;;8.38;3.25;;;;;;;19.37;47.56;99949.91;5010614;28;20762;-79
2021/01/24 09:26:46;;;;;;;9.77;3.40;;;;;;;19.30;47.87;99940.47;5017129;28;20452;-79
2021/01/24 09:29:15;;;;;;;6.88;2.70;;;;;;;19.40;47.65;99948.97;5026782;28;20416;-78
2021/01/24 09:31:40;;;;;;;5.88;2.88;;;;;;;19.41;47.68;99954.19;4999798;28;20537;-78
2021/01/24 09:34:06;;;;;;;5.18;2.50;;;;;;;19.34;47.64;99946.50;5025740;28;20064;-79
2021/01/24 09:36:31;;;;;;;5.47;2.58;;;;;;;19.41;47.50;99951.56;5030993;28;20064;-80
2021/01/24 09:38:58;;;;;;;4.05;2.88;;;;;;;19.41;47.31;99945.47;5010018;28;20037;-79
2021/01/24 09:41:23;;;;;;;6.05;2.55;;;;;;;19.38;47.38;99951.63;5026939;28;20026;-80
2021/01/24 09:43:49;;;;;;;4.57;2.25;;;;;;;19.43;47.53;99957.63;5013506;28;20392;-80
2021/01/24 09:46:14;;;;;;;5.57;2.65;;;;;;;19.45;47.23;99953.22;5018257;28;20037;-79
2021/01/24 09:48:41;;;;;;;3.80;2.00;;;;;;;19.40;47.00;99948.97;5022210;28;20029;-79
2021/01/24 09:51:09;;;;;;;5.47;2.88;;;;;;;19.42;47.40;99958.53;5033141;28;20048;-78
2021/01/24 09:53:38;;;;;;;4.28;2.10;;;;;;;19.49;47.07;99949.66;5013196;28;20033;-79
2021/01/24 09:56:05;;;;;;;3.85;2.15;;;;;;;19.45;46.95;99958.47;5015703;28;20822;-80
2021/01/24 09:58:31;;;;;;;6.97;2.50;;;;;;;19.45;46.95;99961.09;5012330;28;20037;-79
2021/01/24 10:00:56;;;;;;;4.82;2.22;;;;;;;19.54;46.92;99962.66;5013534;28;20575;-80
2021/01/24 10:03:21;;;;;;;4.57;1.85;;;;;;;19.54;46.71;99958.28;5022279;28;20415;-79
2021/01/24 10:05:49;;;;;;;4.68;1.88;;;;;;;19.51;46.86;99967.97;5015717;28;20040;-79
2021/01/24 10:08:14;;;;;;;4.20;1.95;;;;;;;19.54;47.02;99965.28;5023821;28;20042;-79
2021/01/24 10:10:40;;;;;;;4.43;2.17;;;;;;;19.52;46.98;99959.22;5012530;28;20704;-80
2021/01/24 10:13:05;;;;;;;2.80;1.52;;;;;;;19.48;46.98;99963.63;4992426;28;20052;-72
2021/01/24 10:15:30;;;;;;;4.05;1.80;;;;;;;19.57;47.02;99966.09;5011666;28;20034;-72
2021/01/24 10:17:56;;;;;;;5.47;2.38;;;;;;;19.58;46.55;99964.31;5009076;28;20120;-79
2021/01/24 10:20:22;;;;;;;4.03;2.58;;;;;;;19.53;46.85;99964.44;5015442;28;21936;-72
2021/01/24 10:22:50;;;;;;;6.00;1.90;;;;;;;19.53;47.01;99967.03;4991519;28;20207;-72
2021/01/24 10:25:18;;;;;;;4.07;1.92;;;;;;;19.56;46.71;99966.97;5004253;28;20041;-72
2021/01/24 10:27:45;;;;;;;2.75;1.73;;;;;;;19.55;46.79;99965.25;5003452;28;20044;-72
2021/01/24 10:30:13;;;;;;;3.25;1.60;;;;;;;19.47;46.82;99959.31;4990584;28;20113;-73
2021/01/24 10:32:40;;;;;;;4.28;1.70;;;;;;;19.54;46.91;99968.78;5017304;28;20036;-73
2021/01/24 10:35:07;;;;;;;3.85;2.00;;;;;;;19.66;46.58;99967.63;5015782;28;20038;-72
2021/01/24 10:37:34;;;;;;;3.45;1.77;;;;;;;19.69;46.86;99961.44;5005066;28;20037;-73
2021/01/24 10:40:01;;;;;;;6.18;1.58;;;;;;;19.68;47.01;99957.97;4989349;28;20026;-72
2021/01/24 10:42:26;;;;;;;3.72;1.55;;;;;;;19.63;46.52;99954.56;5014467;28;20028;-72
2021/01/24 10:44:51;;;;;;;4.45;1.65;;;;;;;19.60;47.29;99959.91;5024643;28;20029;-72
2021/01/24 10:47:17;;;;;;;7.72;1.60;;;;;;;19.60;47.01;99962.53;5015444;28;20472;-72
2021/01/24 10:49:42;;;;;;;4.40;2.05;;;;;;;19.60;47.00;99973.03;5010672;28;20053;-72
2021/01/24 10:52:12;;;;;;;4.82;1.70;;;;;;;19.53;47.16;99967.03;4992492;28;20018;-72
2021/01/24 10:54:40;;;;;;;6.57;1.95;;;;;;;19.51;47.12;99963.59;4999967;28;20080;-71
2021/01/24 10:57:05;;;;;;;3.55;2.20;;;;;;;19.51;47.06;99960.09;5020448;28;20415;-72
2021/01/24 10:59:31;;;;;;;4.75;2.38;;;;;;;19.51;47.29;99968.84;5019897;28;20392;-71
2021/01/24 11:01:59;;;;;;;3.90;1.38;;;;;;;19.52;47.01;99973.19;4982770;28;20073;-72
2021/01/24 11:04:25;;;;;;;3.13;1.55;;;;;;;19.57;46.87;99970.47;5023576;28;20033;-77
2021/01/24 11:06:51;;;;;;;4.05;1.95;;;;;;;19.53;46.61;99971.44;4989946;28;20037;-72
2021/01/24 11:09:21;;;;;;;2.65;1.70;;;;;;;19.53;46.91;99974.03;4983678;28;20124;-78
2021/01/24 11:11:49;;;;;;;4.03;1.50;;;;;;;19.50;46.83;99959.25;4987206;28;20037;-72
2021/01/24 11:14:14;;;;;;;2.75;1.20;;;;;;;19.48;46.54;99950.50;4996992;28;20030;-71
2021/01/24 11:16:40;;;;;;;3.17;1.52;;;;;;;19.46;46.78;99960.19;5002204;28;20026;-78
2021/01/24 11:19:06;;;;;;;8.98;1.58;;;;;;;19.53;46.71;99964.44;4987732;28;20030;-78
2021/01/24 11:21:31;;;;;;;3.20;1.45;;;;;;;19.52;46.63;99962.69;5008109;28;20038;-78
2021/01/24 11:23:57;;;;;;;2.83;1.30;;;;;;;19.52;46.36;99973.19;5019416;28;20034;-71
2021/01/24 11:26:22;;;;;;;4.80;1.38;;;;;;;19.44;46.22;99967.22;5012303;28;20038;-78
2021/01/24 11:28:48;;;;;;;4.60;1.60;;;;;;;19.40;46.44;99965.56;4995314;28;20026;-71
2021/01/24 11:31:14;;;;;;;3.75;1.30;;;;;;;19.38;46.54;99967.34;5013746;28;20128;-78
2021/01/24 11:33:39;;;;;;;3.20;1.80;;;;;;;19.35;46.45;99964.78;5013199;28;20041;-78
2021/01/24 11:36:05;;;;;;;2.92;1.20;;;;;;;19.33;46.61;99963.13;5022716;28;20099;-78